createdAt,value
2019-05-20T00:01:05.252Z,16.62
2019-05-20T00:03:35.873Z,16.77
2019-05-20T00:06:06.253Z,15.85
2019-05-20T00:08:38.039Z,17.12
2019-05-20T00:11:08.773Z,17.45
2019-05-20T00:13:39.394Z,17.20
2019-05-20T00:16:10.171Z,18.48
2019-05-20T00:18:40.850Z,18.00
2019-05-20T00:21:11.477Z,17.25
2019-05-20T00:23:43.351Z,20.45
2019-05-20T00:26:13.607Z,23.70
2019-05-20T00:28:43.859Z,16.27
2019-05-20T00:31:14.465Z,19.17
2019-05-20T00:33:44.820Z,17.98
2019-05-20T00:36:15.086Z,18.55
2019-05-20T00:38:47.026Z,23.30
2019-05-20T00:41:17.620Z,21.40
2019-05-20T00:43:47.899Z,19.40
2019-05-20T00:46:18.493Z,18.15
2019-05-20T00:48:48.865Z,18.92
2019-05-20T00:51:19.107Z,18.92
2019-05-20T00:53:49.675Z,18.65
2019-05-20T00:56:20.334Z,20.37
2019-05-20T00:58:50.622Z,18.73
2019-05-20T01:01:21.252Z,17.20
2019-05-20T01:03:51.887Z,19.98
2019-05-20T01:06:22.610Z,17.52
2019-05-20T01:08:53.245Z,21.42
2019-05-20T01:11:23.595Z,20.00
2019-05-20T01:13:54.163Z,20.20
2019-05-20T01:16:24.512Z,20.68
2019-05-20T01:18:54.735Z,19.67
2019-05-20T01:21:25.300Z,20.60
2019-05-20T01:23:55.648Z,24.92
2019-05-20T01:26:26.236Z,20.65
2019-05-20T01:28:56.623Z,22.40
2019-05-20T01:31:27.200Z,23.95
2019-05-20T01:33:57.854Z,20.17
2019-05-20T01:36:28.492Z,23.07
2019-05-20T01:38:59.172Z,25.25
2019-05-20T01:41:29.453Z,21.42
2019-05-20T01:43:59.738Z,21.33
2019-05-20T01:46:29.947Z,23.27
2019-05-20T01:49:00.560Z,22.45
2019-05-20T01:51:31.282Z,22.62
2019-05-20T01:54:02.602Z,24.27
2019-05-20T01:56:32.981Z,25.97
2019-05-20T01:59:03.368Z,25.00
2019-05-20T02:01:33.610Z,26.37
2019-05-20T02:04:03.833Z,26.02
2019-05-20T02:06:34.936Z,28.30
2019-05-20T02:09:08.610Z,25.35
2019-05-20T02:11:38.845Z,30.35
2019-05-20T02:14:13.647Z,26.12
2019-05-20T02:16:43.884Z,27.48
2019-05-20T02:19:14.167Z,33.65
2019-05-20T02:21:44.771Z,25.50
2019-05-20T02:24:15.063Z,26.07
2019-05-20T02:26:45.659Z,28.67
2019-05-20T02:29:16.308Z,28.00
2019-05-20T02:31:46.614Z,28.75
2019-05-20T02:34:17.204Z,29.07
2019-05-20T02:36:47.876Z,25.23
2019-05-20T02:39:18.199Z,28.67
2019-05-20T02:41:48.465Z,30.08
2019-05-20T02:44:18.707Z,24.85
2019-05-20T02:46:48.992Z,26.90
2019-05-20T02:49:19.668Z,31.70
2019-05-20T02:51:50.360Z,31.10
2019-05-20T02:54:21.085Z,25.50
2019-05-20T02:56:51.368Z,29.50
2019-05-20T02:59:21.685Z,26.55
2019-05-20T03:01:51.919Z,27.30
2019-05-20T03:04:22.139Z,23.80
2019-05-20T03:06:52.466Z,25.88
2019-05-20T03:09:23.032Z,24.90
2019-05-20T03:11:53.345Z,24.25
2019-05-20T03:14:23.642Z,24.43
2019-05-20T03:16:53.961Z,25.68
2019-05-20T03:19:24.188Z,26.27
2019-05-20T03:21:54.425Z,29.25
2019-05-20T03:24:24.690Z,26.60
2019-05-20T03:26:55.388Z,29.18
2019-05-20T03:29:25.710Z,22.35
2019-05-20T03:31:55.929Z,24.95
2019-05-20T03:34:45.469Z,31.95
2019-05-20T03:36:58.099Z,16.42
2019-05-20T03:39:28.716Z,20.75
2019-05-20T03:41:59.014Z,19.10
2019-05-20T03:44:29.583Z,25.35
2019-05-20T03:46:59.889Z,16.60
2019-05-20T03:49:30.117Z,16.02
2019-05-20T03:52:00.708Z,16.17
2019-05-20T03:54:31.393Z,19.85
2019-05-20T03:57:01.668Z,16.40
2019-05-20T03:59:31.910Z,15.75
2019-05-20T04:02:02.146Z,17.32
2019-05-20T04:04:32.900Z,16.50
2019-05-20T04:07:03.223Z,20.95
2019-05-20T04:09:33.496Z,15.05
2019-05-20T04:12:04.789Z,13.72
2019-05-20T04:14:35.396Z,15.40
2019-05-20T04:17:06.060Z,13.40
2019-05-20T04:19:36.734Z,13.70
2019-05-20T04:22:07.020Z,16.48
2019-05-20T04:24:37.295Z,21.27
2019-05-20T04:27:07.540Z,17.40
2019-05-20T04:29:38.123Z,13.53
2019-05-20T04:32:08.699Z,13.40
2019-05-20T04:34:39.044Z,12.68
2019-05-20T04:37:11.123Z,13.85
2019-05-20T04:39:41.417Z,12.45
2019-05-20T04:42:11.603Z,12.95
2019-05-20T04:44:42.220Z,12.70
2019-05-20T04:47:12.983Z,12.43
2019-05-20T04:49:43.296Z,15.10
2019-05-20T04:52:13.861Z,14.58
2019-05-20T04:54:44.134Z,15.58
2019-05-20T04:57:14.441Z,15.08
2019-05-20T04:59:44.618Z,13.03
2019-05-20T05:02:14.835Z,8.35
2019-05-20T05:04:45.128Z,11.95
2019-05-20T05:07:15.356Z,14.18
2019-05-20T05:09:45.573Z,10.88
2019-05-20T05:12:15.811Z,12.82
2019-05-20T05:14:46.105Z,19.25
2019-05-20T05:17:16.754Z,11.43
2019-05-20T05:19:47.460Z,8.95
2019-05-20T05:22:17.836Z,13.70
2019-05-20T05:24:52.736Z,10.85
2019-05-20T05:27:22.989Z,10.75
2019-05-20T05:29:53.584Z,12.23
2019-05-20T05:32:42.887Z,9.78
2019-05-20T05:35:20.661Z,15.25
2019-05-20T05:37:51.392Z,16.27
2019-05-20T05:40:31.849Z,11.33
2019-05-20T05:43:02.534Z,24.98
2019-05-20T05:45:34.253Z,18.32
2019-05-20T05:48:04.638Z,11.03
2019-05-20T05:50:34.852Z,13.15
2019-05-20T05:53:05.572Z,14.07
2019-05-20T05:55:36.273Z,12.93
2019-05-20T05:58:08.778Z,21.55
2019-05-20T06:00:39.075Z,14.35
2019-05-20T06:03:09.389Z,17.85
2019-05-20T06:05:39.741Z,12.58
2019-05-20T06:08:11.415Z,10.50
2019-05-20T06:10:42.023Z,15.85
2019-05-20T06:13:12.351Z,16.02
2019-05-20T06:15:42.551Z,11.05
2019-05-20T06:18:13.240Z,11.45
2019-05-20T06:20:43.570Z,14.38
2019-05-20T06:23:13.828Z,12.03
2019-05-20T06:25:44.140Z,15.38
2019-05-20T06:28:14.750Z,10.82
2019-05-20T06:30:47.001Z,15.13
2019-05-20T06:33:17.317Z,13.58
2019-05-20T06:35:47.926Z,13.15
2019-05-20T06:38:22.158Z,13.93
2019-05-20T06:40:52.509Z,16.87
2019-05-20T06:43:23.959Z,13.08
2019-05-20T06:45:56.130Z,12.65
2019-05-20T06:48:26.424Z,16.30
2019-05-20T06:50:57.108Z,14.23
2019-05-20T06:53:27.945Z,15.80
2019-05-20T06:55:58.265Z,20.15
2019-05-20T06:58:29.131Z,17.87
2019-05-20T07:00:59.354Z,16.87
2019-05-20T07:03:29.648Z,8.58
2019-05-20T07:05:59.972Z,10.00
2019-05-20T07:08:30.901Z,5.85
2019-05-20T07:11:01.490Z,26.50
2019-05-20T07:13:32.214Z,6.30
2019-05-20T07:16:03.057Z,9.18
2019-05-20T07:18:33.551Z,14.43
2019-05-20T07:21:04.207Z,9.40
2019-05-20T07:23:34.608Z,8.30
2019-05-20T07:26:05.497Z,9.75
2019-05-20T07:28:35.994Z,12.20
2019-05-20T07:31:06.294Z,11.70
2019-05-20T07:33:36.857Z,8.13
2019-05-20T07:36:10.087Z,6.97
2019-05-20T07:38:42.538Z,10.75
2019-05-20T07:41:13.835Z,9.80
2019-05-20T07:43:44.447Z,11.12
2019-05-20T07:46:16.667Z,8.75
2019-05-20T07:48:49.043Z,9.50
2019-05-20T07:51:21.344Z,7.00
2019-05-20T07:53:52.831Z,6.65
2019-05-20T07:56:31.511Z,9.25
2019-05-20T07:59:06.201Z,9.20
2019-05-20T08:01:36.649Z,10.40
2019-05-20T08:04:07.743Z,15.68
2019-05-20T08:06:38.533Z,10.60
2019-05-20T08:09:09.445Z,6.47
2019-05-20T08:11:42.432Z,8.73
2019-05-20T08:14:12.634Z,9.10
2019-05-20T08:16:42.891Z,8.08
2019-05-20T08:19:14.895Z,7.17
2019-05-20T08:21:45.116Z,8.08
2019-05-20T08:24:15.364Z,6.75
2019-05-20T08:26:45.618Z,9.83
2019-05-20T08:29:17.452Z,8.05
2019-05-20T08:31:48.125Z,13.30
2019-05-20T08:34:18.639Z,10.35
2019-05-20T08:36:51.458Z,8.95
2019-05-20T08:39:21.696Z,4.75
2019-05-20T08:41:55.332Z,11.68
2019-05-20T08:44:25.629Z,6.47
2019-05-20T08:46:55.901Z,8.63
2019-05-20T08:49:26.142Z,14.33
2019-05-20T08:51:56.613Z,7.65
2019-05-20T08:54:26.937Z,5.33
2019-05-20T08:56:59.112Z,8.95
2019-05-20T08:59:29.743Z,9.10
2019-05-20T09:02:02.032Z,10.38
2019-05-20T09:04:32.344Z,17.27
2019-05-20T09:07:03.048Z,13.32
2019-05-20T09:09:33.993Z,12.07
2019-05-20T09:12:05.283Z,16.23
2019-05-20T09:14:40.417Z,15.08
2019-05-20T09:17:09.685Z,12.90
2019-05-20T09:19:40.335Z,8.50
2019-05-20T09:22:10.990Z,12.45
2019-05-20T09:24:42.940Z,16.67
2019-05-20T09:27:18.320Z,10.20
2019-05-20T09:32:17.929Z,9.23
2019-05-20T09:35:23.896Z,6.00
2019-05-20T09:37:36.017Z,24.25
2019-05-20T09:40:07.381Z,8.13
2019-05-20T09:42:40.967Z,16.15
2019-05-20T09:45:12.775Z,13.58
2019-05-20T09:47:43.563Z,11.28
2019-05-20T09:50:14.526Z,10.72
2019-05-20T09:52:46.675Z,7.95
2019-05-20T09:55:16.966Z,10.65
2019-05-20T09:57:47.646Z,6.03
2019-05-20T10:00:18.392Z,7.92
2019-05-20T10:02:49.103Z,11.85
2019-05-20T10:05:19.379Z,11.18
2019-05-20T10:07:49.960Z,12.93
2019-05-20T10:10:21.616Z,12.18
2019-05-20T10:12:52.486Z,14.38
2019-05-20T10:15:24.830Z,6.20
2019-05-20T10:17:55.177Z,9.50
2019-05-20T10:20:25.507Z,9.03
2019-05-20T10:22:55.774Z,11.88
2019-05-20T10:25:27.721Z,10.43
2019-05-20T10:27:58.621Z,13.53
2019-05-20T10:30:29.357Z,19.45
2019-05-20T10:32:59.748Z,12.40
2019-05-20T10:35:31.474Z,7.40
2019-05-20T10:38:02.171Z,11.78
2019-05-20T10:40:32.436Z,10.68
2019-05-20T10:43:15.155Z,10.63
2019-05-20T10:45:45.660Z,10.80
2019-05-20T10:48:17.265Z,11.20
2019-05-20T10:50:48.010Z,9.88
2019-05-20T10:53:18.805Z,11.83
2019-05-20T10:55:49.186Z,8.03
2019-05-20T10:58:22.238Z,7.67
2019-05-20T11:01:02.523Z,12.07
2019-05-20T11:03:26.524Z,8.98
2019-05-20T11:05:56.766Z,11.22
2019-05-20T11:08:27.353Z,8.73
2019-05-20T11:10:57.650Z,9.73
2019-05-20T11:13:29.719Z,9.28
2019-05-20T11:15:59.919Z,9.35
2019-05-20T11:18:51.112Z,10.10
2019-05-20T11:21:23.386Z,8.15
2019-05-20T11:23:55.437Z,12.25
2019-05-20T11:26:26.055Z,10.32
2019-05-20T11:28:56.388Z,14.10
2019-05-20T11:31:26.614Z,14.75
2019-05-20T11:33:57.806Z,11.55
2019-05-20T11:36:28.053Z,13.62
2019-05-20T11:38:59.718Z,11.45
2019-05-20T11:41:53.480Z,12.10
2019-05-20T11:44:04.415Z,12.13
2019-05-20T11:46:34.762Z,15.32
2019-05-20T11:49:05.054Z,12.68
2019-05-20T11:51:35.615Z,17.67
2019-05-20T11:54:06.289Z,19.48
2019-05-20T11:56:36.931Z,17.10
2019-05-20T11:59:08.228Z,14.98
2019-05-20T12:01:38.498Z,16.27
2019-05-20T12:04:09.087Z,13.60
2019-05-20T12:06:40.682Z,18.48
2019-05-20T12:09:11.299Z,19.37
2019-05-20T12:11:41.605Z,16.62
2019-05-20T12:14:11.830Z,17.82
2019-05-20T12:16:42.450Z,19.37
2019-05-20T12:19:13.107Z,15.55
2019-05-20T12:21:43.511Z,21.00
2019-05-20T12:24:13.778Z,18.05
2019-05-20T12:26:44.421Z,26.42
2019-05-20T12:29:17.968Z,20.43
2019-05-20T12:31:48.694Z,17.20
2019-05-20T12:34:19.038Z,16.70
2019-05-20T12:36:49.250Z,24.18
2019-05-20T12:39:19.601Z,18.15
2019-05-20T12:41:49.809Z,16.52
2019-05-20T12:44:20.258Z,17.30
2019-05-20T12:46:50.480Z,14.65
2019-05-20T12:49:20.865Z,19.37
2019-05-20T12:51:51.303Z,13.18
2019-05-20T12:54:21.696Z,14.60
2019-05-20T12:56:53.790Z,17.40
2019-05-20T12:59:26.211Z,14.85
2019-05-20T13:01:57.280Z,12.90
2019-05-20T13:04:28.465Z,28.05
2019-05-20T13:07:00.023Z,14.07
2019-05-20T13:09:30.781Z,17.07
2019-05-20T13:12:01.488Z,19.75
2019-05-20T13:14:32.225Z,22.85
2019-05-20T13:17:05.683Z,13.28
2019-05-20T13:19:36.435Z,21.97
2019-05-20T13:22:18.153Z,11.38
2019-05-20T13:24:53.192Z,14.60
2019-05-20T13:27:30.229Z,16.85
2019-05-20T13:30:02.478Z,17.90
2019-05-20T13:32:33.927Z,22.25
2019-05-20T13:35:14.521Z,12.40
2019-05-20T13:37:48.061Z,18.10
2019-05-20T13:40:21.525Z,12.47
2019-05-20T13:42:51.969Z,13.85
2019-05-20T13:45:23.526Z,14.40
2019-05-20T13:48:07.584Z,11.65
2019-05-20T13:50:41.821Z,13.55
2019-05-20T13:53:14.781Z,15.80
2019-05-20T13:55:44.563Z,23.40
2019-05-20T13:58:15.551Z,17.52
2019-05-20T14:00:47.897Z,18.67
2019-05-20T14:03:18.303Z,13.45
2019-05-20T14:05:50.409Z,13.50
2019-05-20T14:08:20.697Z,11.55
2019-05-20T14:11:03.694Z,14.43
2019-05-20T14:13:25.501Z,11.93
2019-05-20T14:15:56.307Z,10.70
2019-05-20T14:18:28.942Z,10.55
2019-05-20T14:20:59.248Z,13.60
2019-05-20T14:23:31.336Z,11.33
2019-05-20T14:26:02.647Z,8.30
2019-05-20T14:28:36.118Z,9.35
2019-05-20T14:31:10.431Z,11.55
2019-05-20T14:33:43.843Z,12.60
2019-05-20T14:36:37.892Z,8.83
2019-05-20T14:38:53.944Z,9.90
2019-05-20T14:41:25.200Z,11.12
2019-05-20T14:43:56.785Z,11.57
2019-05-20T14:46:37.348Z,10.40
2019-05-20T14:49:11.163Z,8.88
2019-05-20T14:51:42.047Z,17.75
2019-05-20T14:54:12.878Z,12.88
2019-05-20T14:56:46.933Z,17.60
2019-05-20T14:59:18.222Z,8.37
2019-05-20T15:01:49.067Z,11.08
2019-05-20T15:04:21.089Z,13.08
2019-05-20T15:06:51.465Z,11.15
2019-05-20T15:09:23.848Z,14.55
2019-05-20T15:11:58.700Z,11.40
2019-05-20T15:14:29.126Z,10.72
2019-05-20T15:16:59.503Z,9.98
2019-05-20T15:19:30.941Z,10.68
2019-05-20T15:22:01.180Z,14.60
2019-05-20T15:24:31.477Z,14.73
2019-05-20T15:27:02.271Z,10.98
2019-05-20T15:29:32.913Z,11.55
2019-05-20T15:32:03.248Z,10.25
2019-05-20T15:34:33.620Z,10.72
2019-05-20T15:37:04.553Z,16.02
2019-05-20T15:39:37.429Z,13.32
2019-05-20T15:42:09.829Z,10.82
2019-05-20T15:44:40.643Z,14.05
2019-05-20T15:47:11.930Z,12.00
2019-05-20T15:49:42.311Z,12.85
2019-05-20T15:52:13.023Z,14.20
2019-05-20T15:54:43.779Z,15.23
2019-05-20T15:57:14.104Z,17.17
2019-05-20T15:59:46.586Z,14.53
2019-05-20T16:02:19.875Z,12.65
2019-05-20T16:04:50.135Z,13.57
2019-05-20T16:07:20.382Z,12.13
2019-05-20T16:09:50.712Z,13.30
2019-05-20T16:12:21.343Z,13.13
2019-05-20T16:14:51.990Z,23.40
2019-05-20T16:17:22.523Z,12.15
2019-05-20T16:19:53.141Z,17.17
2019-05-20T16:22:23.412Z,18.00
2019-05-20T16:24:53.748Z,12.45
2019-05-20T16:27:24.613Z,17.82
2019-05-20T16:30:06.367Z,16.52
2019-05-20T16:32:27.415Z,23.50
2019-05-20T16:34:58.014Z,20.75
2019-05-20T16:37:28.300Z,23.30
2019-05-20T16:39:58.896Z,21.23
2019-05-20T16:42:29.684Z,41.18
2019-05-20T16:45:00.106Z,32.30
2019-05-20T16:47:30.323Z,47.25
2019-05-20T16:50:00.926Z,47.08
2019-05-20T16:52:33.407Z,29.32
2019-05-20T16:55:04.842Z,26.12
2019-05-20T16:57:35.575Z,32.33
2019-05-20T17:00:28.992Z,29.23
2019-05-20T17:02:42.254Z,32.70
2019-05-20T17:05:12.663Z,35.58
2019-05-20T17:07:43.317Z,41.13
2019-05-20T17:10:15.087Z,36.08
2019-05-20T17:12:45.537Z,34.43
2019-05-20T17:15:17.396Z,39.35
2019-05-20T17:17:47.640Z,25.65
2019-05-20T17:20:17.959Z,34.33
2019-05-20T17:22:48.522Z,27.35
2019-05-20T17:25:18.774Z,60.20
2019-05-20T17:27:49.722Z,31.17
2019-05-20T17:30:20.804Z,30.65
2019-05-20T17:32:51.590Z,39.53
2019-05-20T17:35:22.588Z,45.55
2019-05-20T17:37:55.262Z,36.80
2019-05-20T17:40:25.756Z,36.98
2019-05-20T17:42:56.067Z,35.00
2019-05-20T17:45:26.279Z,35.98
2019-05-20T17:47:56.503Z,37.00
2019-05-20T17:50:27.497Z,36.88
2019-05-20T17:52:57.796Z,38.78
2019-05-20T17:55:29.557Z,33.63
2019-05-20T17:58:01.820Z,40.23
2019-05-20T18:00:32.194Z,32.90
2019-05-20T18:03:02.443Z,33.67
2019-05-20T18:05:32.673Z,31.15
2019-05-20T18:08:02.903Z,34.55
2019-05-20T18:10:33.133Z,34.60
2019-05-20T18:13:03.348Z,36.38
2019-05-20T18:15:34.080Z,42.90
2019-05-20T18:18:04.706Z,44.88
2019-05-20T18:20:35.244Z,48.23
2019-05-20T18:23:05.917Z,45.12
2019-05-20T18:25:36.571Z,49.15
2019-05-20T18:28:06.915Z,38.75
2019-05-20T18:30:38.310Z,44.23
2019-05-20T18:33:08.627Z,45.25
2019-05-20T18:35:38.868Z,41.65
2019-05-20T18:38:09.207Z,40.90
2019-05-20T18:40:41.560Z,48.83
2019-05-20T18:43:11.938Z,42.95
2019-05-20T18:45:42.582Z,51.33
2019-05-20T18:48:12.871Z,46.25
2019-05-20T18:50:43.118Z,37.10
2019-05-20T18:53:13.495Z,41.55
2019-05-20T18:55:44.239Z,62.13
2019-05-20T18:58:14.712Z,63.33
2019-05-20T19:00:45.465Z,43.17
2019-05-20T19:03:16.169Z,48.73
2019-05-20T19:05:47.150Z,41.08
2019-05-20T19:08:17.586Z,43.75
2019-05-20T19:10:47.986Z,45.65
2019-05-20T19:13:18.322Z,52.85
2019-05-20T19:15:48.556Z,50.65
2019-05-20T19:18:19.263Z,49.03
2019-05-20T19:20:55.830Z,46.77
2019-05-20T19:23:26.138Z,52.23
2019-05-20T19:25:58.363Z,53.58
2019-05-20T19:28:28.669Z,56.08
2019-05-20T19:30:59.813Z,65.52
2019-05-20T19:33:30.222Z,62.67
2019-05-20T19:36:00.494Z,55.03
2019-05-20T19:38:34.697Z,52.23
2019-05-20T19:41:03.265Z,52.88
2019-05-20T19:43:33.984Z,49.65
2019-05-20T19:46:04.944Z,55.78
2019-05-20T19:48:35.289Z,49.80
2019-05-20T19:51:05.545Z,45.88
2019-05-20T19:53:40.592Z,49.27
2019-05-20T19:56:13.157Z,45.35
2019-05-20T19:58:45.942Z,50.30
2019-05-20T20:01:16.267Z,44.65
2019-05-20T20:03:47.147Z,46.42
2019-05-20T20:06:23.510Z,52.27
2019-05-20T20:08:54.184Z,44.15
2019-05-20T20:11:27.821Z,50.92
2019-05-20T20:13:58.908Z,54.85
2019-05-20T20:16:29.503Z,59.73
2019-05-20T20:19:00.082Z,59.15
2019-05-20T20:21:37.204Z,80.42
2019-05-20T20:24:16.536Z,80.22
2019-05-20T20:26:48.191Z,89.90
2019-05-20T20:46:09.978Z,91.25
2019-05-20T20:48:40.262Z,65.28
2019-05-20T20:51:10.864Z,74.03
2019-05-20T20:53:41.190Z,65.15
2019-05-20T20:56:24.108Z,55.78
2019-05-20T20:58:43.840Z,65.03
2019-05-20T21:01:14.063Z,74.47
2019-05-20T21:03:44.355Z,75.52
2019-05-20T21:06:14.948Z,87.15
2019-05-20T21:08:45.315Z,85.32
2019-05-20T21:11:15.890Z,83.90
2019-05-20T21:13:46.208Z,76.37
2019-05-20T21:16:16.435Z,83.40
2019-05-20T21:18:47.142Z,80.12
2019-05-20T21:21:17.413Z,74.27
2019-05-20T21:23:48.053Z,89.13
2019-05-20T21:26:18.620Z,76.60
2019-05-20T21:28:49.215Z,65.60
2019-05-20T21:31:19.892Z,67.78
2019-05-20T21:33:50.220Z,66.05
2019-05-20T21:36:20.531Z,68.47
2019-05-20T21:38:52.303Z,76.87
2019-05-20T21:41:23.210Z,65.92
2019-05-20T21:43:53.623Z,65.90
2019-05-20T21:46:23.907Z,68.07
2019-05-20T21:48:54.548Z,79.32
2019-05-20T21:51:25.382Z,77.32
2019-05-20T21:53:55.723Z,76.72
2019-05-20T21:56:25.958Z,78.83
2019-05-20T21:58:56.289Z,80.32
2019-05-20T22:01:26.952Z,85.38
2019-05-20T22:03:57.688Z,84.97
2019-05-20T22:06:27.998Z,74.40
2019-05-20T22:08:58.220Z,75.67
2019-05-20T22:11:28.545Z,85.80
2019-05-20T22:14:00.434Z,75.37
2019-05-20T22:16:31.509Z,82.80
2019-05-20T22:19:01.820Z,90.40
2019-05-20T22:21:33.680Z,98.20
2019-05-20T22:24:05.775Z,96.92
2019-05-20T22:26:36.352Z,96.78
2019-05-20T22:29:06.763Z,94.75
2019-05-20T22:31:36.985Z,89.97
2019-05-20T22:34:07.414Z,72.95
2019-05-20T22:36:37.655Z,86.37
2019-05-20T22:39:09.386Z,76.87
2019-05-20T22:41:39.791Z,64.17
2019-05-20T22:44:11.245Z,59.25
2019-05-20T22:46:41.469Z,49.38
2019-05-20T22:49:11.896Z,43.35
2019-05-20T22:51:42.111Z,45.38
2019-05-20T22:54:12.381Z,40.95
2019-05-20T22:56:43.072Z,47.75
2019-05-20T22:59:13.948Z,43.70
2019-05-20T23:01:44.169Z,37.98
2019-05-20T23:04:14.796Z,38.05
2019-05-20T23:06:45.448Z,37.60
2019-05-20T23:09:16.102Z,36.08
2019-05-20T23:11:46.387Z,33.80
2019-05-20T23:14:16.745Z,32.42
2019-05-20T23:16:46.974Z,39.30
2019-05-20T23:19:17.223Z,32.00
2019-05-20T23:21:47.490Z,30.80
2019-05-20T23:24:18.045Z,32.95
2019-05-20T23:26:48.714Z,31.35
2019-05-20T23:29:19.574Z,33.10
2019-05-20T23:31:50.168Z,34.23
2019-05-20T23:34:20.829Z,30.02
2019-05-20T23:36:51.495Z,32.83
2019-05-20T23:39:22.137Z,31.52
2019-05-20T23:41:52.445Z,29.05
2019-05-20T23:44:22.663Z,38.08
2019-05-20T23:46:52.987Z,31.73
2019-05-20T23:49:23.190Z,34.35
2019-05-20T23:51:53.867Z,32.25
2019-05-20T23:54:24.534Z,28.12
2019-05-20T23:56:54.817Z,32.50
2019-05-20T23:59:25.445Z,27.85
